Time;durP1;ratioP1;P1;durP2;ratioP2;P2;SDS_P1;SDS_P2;PMS_P1;PMS_P2;Temp;Humidity;BMP_temperature;BMP_pressure;BME280_temperature;BME280_humidity;BME280_pressure;Samples;Min_cycle;Max_cycle;Signal;HPM_P1;HPM_P2
2021/09/03 00:00:47;;;;;;;27.10;6.78;;;;;;;;;;4976968;28;20124;-56
2021/09/03 00:03:13;;;;;;;19.25;6.53;;;;;;;;;;4981745;28;20043;-54
2021/09/03 00:05:42;;;;;;;16.20;6.10;;;;;;;;;;4977094;28;20052;-54
2021/09/03 00:08:09;;;;;;;14.75;6.30;;;;;;;;;;5000380;28;20132;-58
2021/09/03 00:10:35;;;;;;;19.60;6.38;;;;;;;;;;4980248;28;20046;-55
2021/09/03 00:13:02;;;;;;;14.27;5.80;;;;;;;;;;4968142;28;20052;-54
2021/09/03 00:15:29;;;;;;;18.10;5.97;;;;;;;;;;4998289;28;20046;-58
2021/09/03 00:17:56;;;;;;;19.42;7.15;;;;;;;;;;4982842;28;20034;-56
2021/09/03 00:20:23;;;;;;;18.40;6.60;;;;;;;;;;4980983;28;20060;-55
2021/09/03 00:22:49;;;;;;;17.13;6.57;;;;;;;;;;4997816;28;20046;-56
2021/09/03 00:25:16;;;;;;;15.10;6.82;;;;;;;;;;4980944;28;20070;-51
2021/09/03 00:27:43;;;;;;;16.80;6.47;;;;;;;;;;4981926;28;20150;-58
2021/09/03 00:30:09;;;;;;;19.77;6.78;;;;;;;;;;4983670;28;20081;-54
2021/09/03 00:32:36;;;;;;;23.77;6.78;;;;;;;;;;4979704;28;20135;-56
2021/09/03 00:35:04;;;;;;;16.67;6.30;;;;;;;;;;4981776;28;20061;-57
2021/09/03 00:37:31;;;;;;;16.50;6.38;;;;;;;;;;4978490;28;20042;-52
2021/09/03 00:39:57;;;;;;;19.15;6.53;;;;;;;;;;4998739;28;20061;-56
2021/09/03 00:42:24;;;;;;;16.60;6.90;;;;;;;;;;4980116;28;20066;-58
2021/09/03 00:44:50;;;;;;;15.98;6.90;;;;;;;;;;4981295;28;20034;-56
2021/09/03 00:47:17;;;;;;;20.33;7.05;;;;;;;;;;4980471;28;20050;-57
2021/09/03 00:49:43;;;;;;;20.17;6.60;;;;;;;;;;4982610;28;20042;-53
2021/09/03 00:52:11;;;;;;;14.93;6.53;;;;;;;;;;4995862;28;20054;-57
2021/09/03 00:54:38;;;;;;;15.27;6.15;;;;;;;;;;4982400;28;20046;-57
2021/09/03 00:57:05;;;;;;;17.23;6.22;;;;;;;;;;4980093;28;20060;-55
2021/09/03 00:59:31;;;;;;;17.33;7.10;;;;;;;;;;4997341;28;20055;-55
2021/09/03 01:01:58;;;;;;;14.93;6.82;;;;;;;;;;4980629;28;20085;-55
2021/09/03 01:04:24;;;;;;;18.67;7.15;;;;;;;;;;4972726;28;20042;-56
2021/09/03 01:06:51;;;;;;;20.15;7.20;;;;;;;;;;4983262;28;20042;-58
2021/09/03 01:09:19;;;;;;;22.92;7.75;;;;;;;;;;4979542;28;20042;-57
2021/09/03 01:11:45;;;;;;;21.13;7.47;;;;;;;;;;4983691;28;20050;-58
2021/09/03 01:14:12;;;;;;;21.30;7.55;;;;;;;;;;4996887;28;20105;-55
2021/09/03 01:16:39;;;;;;;17.55;7.32;;;;;;;;;;4982124;28;20046;-58
2021/09/03 01:19:06;;;;;;;20.67;7.55;;;;;;;;;;4996736;28;20092;-57
2021/09/03 01:21:34;;;;;;;17.65;7.63;;;;;;;;;;4983043;28;20038;-55
2021/09/03 01:24:02;;;;;;;20.00;7.30;;;;;;;;;;4981523;28;20067;-56
2021/09/03 01:26:28;;;;;;;19.23;7.65;;;;;;;;;;4985263;28;20042;-55
2021/09/03 01:28:55;;;;;;;18.95;7.32;;;;;;;;;;4980605;28;20030;-56
2021/09/03 01:31:21;;;;;;;19.98;7.65;;;;;;;;;;4985392;28;20034;-58
2021/09/03 01:33:49;;;;;;;17.88;7.53;;;;;;;;;;4982505;28;20046;-57
2021/09/03 01:36:15;;;;;;;22.58;7.68;;;;;;;;;;5002849;28;20042;-53
2021/09/03 01:38:42;;;;;;;17.35;7.18;;;;;;;;;;4983274;28;20070;-56
2021/09/03 01:41:10;;;;;;;16.73;7.82;;;;;;;;;;4982893;28;20042;-55
2021/09/03 01:43:37;;;;;;;21.30;7.07;;;;;;;;;;4984283;28;20074;-57
2021/09/03 01:46:06;;;;;;;22.58;8.80;;;;;;;;;;4979584;28;20038;-58
2021/09/03 01:48:33;;;;;;;18.50;7.82;;;;;;;;;;4984759;28;20165;-56
2021/09/03 01:51:00;;;;;;;19.27;7.70;;;;;;;;;;4980380;28;20057;-57
2021/09/03 01:53:26;;;;;;;14.40;7.25;;;;;;;;;;5001656;28;20066;-56
2021/09/03 01:55:53;;;;;;;15.75;6.80;;;;;;;;;;4981740;28;20042;-56
2021/09/03 01:58:21;;;;;;;19.85;6.90;;;;;;;;;;4985145;28;20069;-55
2021/09/03 02:00:48;;;;;;;13.55;6.97;;;;;;;;;;4999432;28;20065;-56
2021/09/03 02:03:14;;;;;;;19.20;8.18;;;;;;;;;;4987375;28;20042;-58
2021/09/03 02:05:41;;;;;;;21.80;8.35;;;;;;;;;;4979114;28;20058;-57
2021/09/03 02:08:07;;;;;;;15.90;7.30;;;;;;;;;;4983594;28;20046;-57
2021/09/03 02:10:34;;;;;;;18.92;7.50;;;;;;;;;;4985749;28;20045;-54
2021/09/03 02:13:01;;;;;;;19.98;8.07;;;;;;;;;;5001756;28;20050;-57
2021/09/03 02:15:29;;;;;;;17.90;7.45;;;;;;;;;;4997992;28;20054;-54
2021/09/03 02:17:57;;;;;;;17.60;8.27;;;;;;;;;;4986495;28;20046;-58
2021/09/03 02:20:24;;;;;;;18.23;7.65;;;;;;;;;;4984909;28;20038;-54
2021/09/03 02:22:50;;;;;;;16.73;7.40;;;;;;;;;;4987087;28;20042;-57
2021/09/03 02:25:17;;;;;;;16.27;7.50;;;;;;;;;;4985250;28;20054;-53
2021/09/03 02:27:43;;;;;;;20.00;7.70;;;;;;;;;;4982093;28;20034;-57
2021/09/03 02:30:10;;;;;;;16.83;6.75;;;;;;;;;;4986829;28;20034;-54
2021/09/03 02:32:38;;;;;;;18.50;7.82;;;;;;;;;;4979260;28;20056;-56
2021/09/03 02:35:05;;;;;;;20.83;8.13;;;;;;;;;;4985462;28;20042;-56
2021/09/03 02:37:32;;;;;;;16.75;7.25;;;;;;;;;;4967744;28;20054;-55
2021/09/03 02:39:59;;;;;;;22.48;7.65;;;;;;;;;;4966337;28;20039;-57
2021/09/03 02:42:25;;;;;;;17.02;7.85;;;;;;;;;;4981365;28;20050;-58
2021/09/03 02:44:52;;;;;;;23.92;8.50;;;;;;;;;;4984556;28;20046;-56
2021/09/03 02:47:18;;;;;;;25.83;8.27;;;;;;;;;;4982891;28;20049;-57
2021/09/03 02:49:46;;;;;;;20.95;8.13;;;;;;;;;;4985442;28;20048;-55
2021/09/03 02:52:13;;;;;;;22.17;8.70;;;;;;;;;;4983229;28;20042;-55
2021/09/03 02:54:39;;;;;;;23.75;8.00;;;;;;;;;;4985818;28;20306;-58
2021/09/03 02:57:06;;;;;;;21.33;7.82;;;;;;;;;;4981849;28;20054;-54
2021/09/03 02:59:33;;;;;;;19.88;8.27;;;;;;;;;;5002967;28;20046;-55
2021/09/03 03:01:59;;;;;;;21.23;7.95;;;;;;;;;;4983209;28;20046;-52
2021/09/03 03:04:25;;;;;;;19.60;8.75;;;;;;;;;;4984787;28;20135;-58
2021/09/03 03:06:55;;;;;;;22.80;8.68;;;;;;;;;;4983230;28;20043;-57
2021/09/03 03:09:22;;;;;;;18.40;8.18;;;;;;;;;;4980210;28;20042;-53
2021/09/03 03:11:48;;;;;;;20.10;8.13;;;;;;;;;;4978033;28;20046;-54
2021/09/03 03:14:26;;;;;;;18.65;8.60;;;;;;;;;;4975436;28;20078;-58
2021/09/03 03:16:52;;;;;;;21.73;8.23;;;;;;;;;;4981900;28;20061;-58
2021/09/03 03:19:19;;;;;;;18.85;8.55;;;;;;;;;;4977592;28;20058;-56
2021/09/03 03:21:45;;;;;;;23.95;8.13;;;;;;;;;;4983984;28;20038;-55
2021/09/03 03:24:13;;;;;;;19.98;8.32;;;;;;;;;;4982943;28;20046;-57
2021/09/03 03:26:40;;;;;;;20.27;8.57;;;;;;;;;;5001572;28;20042;-54
2021/09/03 03:29:06;;;;;;;26.25;8.57;;;;;;;;;;4978729;28;20281;-56
2021/09/03 03:31:33;;;;;;;19.27;8.40;;;;;;;;;;4981821;28;20067;-51
2021/09/03 03:33:59;;;;;;;17.85;8.57;;;;;;;;;;4980473;28;20058;-55
2021/09/03 03:36:26;;;;;;;24.98;9.45;;;;;;;;;;4985242;28;20050;-54
2021/09/03 03:38:52;;;;;;;17.85;8.75;;;;;;;;;;4998553;28;20091;-57
2021/09/03 03:41:20;;;;;;;23.00;8.27;;;;;;;;;;4985510;28;20042;-56
2021/09/03 03:43:47;;;;;;;22.47;9.00;;;;;;;;;;4981317;28;20053;-54
2021/09/03 03:46:13;;;;;;;17.15;8.48;;;;;;;;;;4984310;28;20054;-55
2021/09/03 03:48:40;;;;;;;21.25;8.10;;;;;;;;;;4981100;28;20054;-55
2021/09/03 03:51:06;;;;;;;23.55;8.73;;;;;;;;;;4984135;28;20045;-55
2021/09/03 03:53:35;;;;;;;25.40;9.00;;;;;;;;;;4983423;28;20042;-53
2021/09/03 03:56:01;;;;;;;26.00;8.60;;;;;;;;;;4965533;28;20054;-52
2021/09/03 03:58:29;;;;;;;23.15;9.77;;;;;;;;;;4966073;28;20057;-56
2021/09/03 04:00:56;;;;;;;20.50;9.73;;;;;;;;;;4978997;28;20054;-55
2021/09/03 04:03:22;;;;;;;19.23;9.32;;;;;;;;;;4983851;28;20119;-57
2021/09/03 04:05:49;;;;;;;18.40;8.40;;;;;;;;;;4992001;28;20034;-53
2021/09/03 04:08:15;;;;;;;21.08;9.10;;;;;;;;;;5004802;28;20030;-56
2021/09/03 04:10:42;;;;;;;22.15;9.00;;;;;;;;;;4979929;28;20051;-53
2021/09/03 04:13:08;;;;;;;25.05;9.30;;;;;;;;;;4966333;28;20046;-55
2021/09/03 04:15:36;;;;;;;22.58;10.25;;;;;;;;;;4969929;28;20058;-55
2021/09/03 04:18:02;;;;;;;20.35;9.57;;;;;;;;;;4985701;28;20188;-54
2021/09/03 04:20:29;;;;;;;23.98;10.00;;;;;;;;;;4978559;28;20053;-55
2021/09/03 04:22:56;;;;;;;21.55;8.98;;;;;;;;;;4981655;28;20039;-56
2021/09/03 04:25:22;;;;;;;25.83;10.80;;;;;;;;;;4983701;28;20049;-55
2021/09/03 04:27:49;;;;;;;25.20;9.85;;;;;;;;;;5003760;28;20128;-55
2021/09/03 04:30:15;;;;;;;20.42;9.38;;;;;;;;;;5000768;28;20037;-56
2021/09/03 04:32:43;;;;;;;21.55;9.27;;;;;;;;;;4964214;28;20043;-56
2021/09/03 04:35:10;;;;;;;22.35;10.48;;;;;;;;;;4978160;28;20042;-53
2021/09/03 04:37:41;;;;;;;24.75;10.32;;;;;;;;;;5010318;28;20045;-52
2021/09/03 04:40:08;;;;;;;26.08;9.23;;;;;;;;;;4981192;28;20046;-55
2021/09/03 04:42:34;;;;;;;23.80;9.93;;;;;;;;;;5012963;28;20081;-52
2021/09/03 04:45:01;;;;;;;24.83;9.40;;;;;;;;;;5002375;28;20078;-55
2021/09/03 04:47:27;;;;;;;25.50;9.50;;;;;;;;;;4985305;28;20052;-55
2021/09/03 04:49:55;;;;;;;33.88;10.65;;;;;;;;;;4983123;28;20128;-55
2021/09/03 04:52:22;;;;;;;24.00;10.50;;;;;;;;;;4968487;28;20074;-52
2021/09/03 04:54:48;;;;;;;21.10;9.63;;;;;;;;;;4967584;28;20297;-54
2021/09/03 04:57:14;;;;;;;24.42;9.82;;;;;;;;;;4978798;28;20054;-56
2021/09/03 04:59:41;;;;;;;19.70;9.38;;;;;;;;;;4983192;28;20128;-56
2021/09/03 05:02:07;;;;;;;22.83;9.75;;;;;;;;;;4990191;28;20066;-54
2021/09/03 05:04:37;;;;;;;20.70;9.00;;;;;;;;;;4993861;28;20049;-56
2021/09/03 05:07:05;;;;;;;24.92;9.30;;;;;;;;;;4977262;28;20035;-53
2021/09/03 05:09:31;;;;;;;22.63;10.65;;;;;;;;;;4948704;28;20050;-56
2021/09/03 05:11:58;;;;;;;24.25;9.93;;;;;;;;;;4959629;28;20058;-55
2021/09/03 05:14:24;;;;;;;28.17;11.23;;;;;;;;;;4948931;28;20125;-57
2021/09/03 05:16:51;;;;;;;27.65;10.43;;;;;;;;;;4948880;28;20035;-57
2021/09/03 05:19:17;;;;;;;28.52;11.40;;;;;;;;;;4981304;28;20105;-57
2021/09/03 05:21:44;;;;;;;25.08;10.02;;;;;;;;;;4968686;28;20046;-55
2021/09/03 05:24:12;;;;;;;29.40;10.55;;;;;;;;;;4964455;28;20047;-55
2021/09/03 05:26:38;;;;;;;21.75;9.65;;;;;;;;;;4948521;28;20160;-57
2021/09/03 05:29:05;;;;;;;29.77;9.68;;;;;;;;;;4945181;28;20174;-53
2021/09/03 05:31:34;;;;;;;22.23;9.93;;;;;;;;;;4965554;28;20078;-57
2021/09/03 05:34:00;;;;;;;23.25;9.65;;;;;;;;;;4945706;28;20095;-57
2021/09/03 05:36:27;;;;;;;24.17;10.20;;;;;;;;;;4947367;28;20155;-56
2021/09/03 05:38:53;;;;;;;24.65;10.38;;;;;;;;;;4945574;28;20039;-57
2021/09/03 05:41:23;;;;;;;26.20;11.43;;;;;;;;;;4948459;28;20039;-57
2021/09/03 05:43:50;;;;;;;27.90;9.88;;;;;;;;;;4945466;28;20038;-57
2021/09/03 05:46:19;;;;;;;21.17;11.10;;;;;;;;;;4948536;28;20109;-56
2021/09/03 05:48:45;;;;;;;25.67;10.10;;;;;;;;;;4946057;28;20046;-56
2021/09/03 05:51:12;;;;;;;25.52;10.80;;;;;;;;;;4965823;28;20035;-57
2021/09/03 05:53:41;;;;;;;27.55;11.45;;;;;;;;;;4936273;28;20051;-54
2021/09/03 05:56:08;;;;;;;24.52;10.48;;;;;;;;;;4990680;28;20053;-57
2021/09/03 05:58:37;;;;;;;27.40;11.60;;;;;;;;;;4985589;28;20043;-57
2021/09/03 06:01:03;;;;;;;25.15;10.32;;;;;;;;;;4965233;28;20129;-53
2021/09/03 06:03:30;;;;;;;24.50;9.73;;;;;;;;;;4969120;28;20050;-53
2021/09/03 06:05:56;;;;;;;29.98;10.95;;;;;;;;;;4964644;28;20046;-55
2021/09/03 06:08:26;;;;;;;24.13;11.02;;;;;;;;;;4968981;28;20023;-54
2021/09/03 06:10:53;;;;;;;25.85;10.75;;;;;;;;;;4956344;28;20050;-56
2021/09/03 06:13:19;;;;;;;31.08;10.88;;;;;;;;;;4984194;28;20105;-55
2021/09/03 06:15:47;;;;;;;24.58;10.77;;;;;;;;;;4980893;28;20039;-56
2021/09/03 06:18:14;;;;;;;24.27;10.30;;;;;;;;;;4966070;28;20049;-56
2021/09/03 06:20:41;;;;;;;28.08;11.38;;;;;;;;;;4960709;28;20154;-56
2021/09/03 06:23:07;;;;;;;24.27;10.55;;;;;;;;;;4964247;28;20049;-56
2021/09/03 06:25:34;;;;;;;23.83;10.27;;;;;;;;;;4971738;28;20045;-56
2021/09/03 06:28:00;;;;;;;26.65;11.45;;;;;;;;;;4966721;28;20125;-55
2021/09/03 06:30:27;;;;;;;29.00;10.23;;;;;;;;;;4974731;28;20042;-56
2021/09/03 06:32:55;;;;;;;27.08;11.27;;;;;;;;;;4948305;28;20099;-56
2021/09/03 06:35:21;;;;;;;26.27;11.13;;;;;;;;;;4944515;28;20146;-55
2021/09/03 06:37:51;;;;;;;25.00;10.73;;;;;;;;;;4947604;28;20288;-57
2021/09/03 06:40:17;;;;;;;27.60;10.95;;;;;;;;;;4962479;28;20061;-57
2021/09/03 06:42:44;;;;;;;25.00;11.27;;;;;;;;;;4964490;28;20058;-55
2021/09/03 06:45:11;;;;;;;23.98;11.05;;;;;;;;;;4966188;28;20411;-55
2021/09/03 06:47:38;;;;;;;25.38;10.68;;;;;;;;;;4952336;28;20035;-57
2021/09/03 06:50:06;;;;;;;28.38;10.65;;;;;;;;;;4950084;28;20046;-55
2021/09/03 06:52:33;;;;;;;26.48;11.48;;;;;;;;;;4959411;28;20063;-56
2021/09/03 06:55:01;;;;;;;27.95;10.85;;;;;;;;;;4957008;28;20058;-55
2021/09/03 06:57:28;;;;;;;24.05;9.85;;;;;;;;;;4956535;28;20055;-55
2021/09/03 06:59:55;;;;;;;25.80;11.13;;;;;;;;;;4960915;28;20034;-54
2021/09/03 07:02:22;;;;;;;26.27;11.05;;;;;;;;;;4958955;28;20121;-56
2021/09/03 07:04:48;;;;;;;30.83;12.18;;;;;;;;;;4968313;28;20039;-56
2021/09/03 07:07:16;;;;;;;26.45;11.52;;;;;;;;;;4969627;28;20039;-57
2021/09/03 07:09:43;;;;;;;22.90;10.60;;;;;;;;;;4977154;28;20090;-55
2021/09/03 07:12:09;;;;;;;23.05;11.25;;;;;;;;;;4973385;28;20375;-55
2021/09/03 07:14:36;;;;;;;23.95;11.52;;;;;;;;;;4962435;28;20050;-56
2021/09/03 07:17:06;;;;;;;22.13;10.48;;;;;;;;;;4979563;28;20053;-55
2021/09/03 07:19:33;;;;;;;23.50;10.50;;;;;;;;;;4978814;28;20066;-56
2021/09/03 07:21:59;;;;;;;30.45;11.40;;;;;;;;;;4976879;28;20178;-55
2021/09/03 07:24:27;;;;;;;29.27;11.10;;;;;;;;;;4979890;28;20054;-55
2021/09/03 07:26:55;;;;;;;25.00;9.88;;;;;;;;;;4981299;28;20116;-55
2021/09/03 07:29:21;;;;;;;21.63;10.10;;;;;;;;;;4958803;28;20046;-56
2021/09/03 07:31:50;;;;;;;29.45;10.07;;;;;;;;;;4962039;28;20051;-56
2021/09/03 07:34:16;;;;;;;30.23;11.55;;;;;;;;;;4958106;28;20043;-56
2021/09/03 07:36:43;;;;;;;29.00;10.90;;;;;;;;;;4963808;28;20079;-55
2021/09/03 07:39:09;;;;;;;24.20;10.63;;;;;;;;;;4972940;28;20062;-53
2021/09/03 07:41:39;;;;;;;25.73;10.70;;;;;;;;;;4982978;28;20059;-56
2021/09/03 07:44:05;;;;;;;21.13;10.18;;;;;;;;;;4976976;28;20042;-56
2021/09/03 07:46:33;;;;;;;24.30;9.70;;;;;;;;;;4983952;28;20046;-57
2021/09/03 07:49:00;;;;;;;27.43;10.20;;;;;;;;;;4968842;28;20050;-57
2021/09/03 07:51:26;;;;;;;27.20;10.10;;;;;;;;;;4963215;28;20281;-56
2021/09/03 07:53:53;;;;;;;23.13;10.00;;;;;;;;;;4959010;28;20039;-54
2021/09/03 07:56:19;;;;;;;29.42;9.98;;;;;;;;;;4961016;28;20046;-57
2021/09/03 07:58:48;;;;;;;22.90;9.35;;;;;;;;;;4963022;28;20058;-55
2021/09/03 08:01:14;;;;;;;19.88;9.57;;;;;;;;;;4981882;28;20042;-56
2021/09/03 08:03:41;;;;;;;21.70;9.10;;;;;;;;;;4979333;28;20058;-58
2021/09/03 08:06:09;;;;;;;22.63;9.10;;;;;;;;;;5001008;28;20042;-54
2021/09/03 08:08:40;;;;;;;22.52;8.85;;;;;;;;;;5001421;28;20030;-54
2021/09/03 08:11:07;;;;;;;22.10;9.43;;;;;;;;;;4993283;28;20078;-58
2021/09/03 08:13:33;;;;;;;27.95;9.07;;;;;;;;;;5001043;28;20053;-55
2021/09/03 08:16:02;;;;;;;18.85;8.18;;;;;;;;;;4995074;28;20054;-57
2021/09/03 08:18:29;;;;;;;36.35;11.27;;;;;;;;;;5001386;28;20052;-56
2021/09/03 08:20:55;;;;;;;28.30;8.98;;;;;;;;;;4981279;28;20047;-58
2021/09/03 08:23:22;;;;;;;21.65;8.30;;;;;;;;;;4995732;28;20041;-57
2021/09/03 08:25:48;;;;;;;18.75;7.55;;;;;;;;;;4980726;28;20078;-55
2021/09/03 08:28:15;;;;;;;16.88;7.68;;;;;;;;;;5000254;28;20054;-56
2021/09/03 08:30:42;;;;;;;23.13;8.63;;;;;;;;;;4979514;28;20106;-57
2021/09/03 08:33:10;;;;;;;21.48;8.00;;;;;;;;;;4986114;28;20089;-57
2021/09/03 08:35:36;;;;;;;25.17;8.57;;;;;;;;;;4977495;28;20042;-56
2021/09/03 08:38:03;;;;;;;19.38;7.80;;;;;;;;;;4967609;28;20043;-57
2021/09/03 08:40:30;;;;;;;21.77;7.93;;;;;;;;;;4987320;28;20046;-57
2021/09/03 08:42:57;;;;;;;20.77;8.15;;;;;;;;;;5004436;28;20054;-57
2021/09/03 08:45:23;;;;;;;19.90;7.32;;;;;;;;;;4999931;28;20082;-57
2021/09/03 08:47:50;;;;;;;20.65;7.68;;;;;;;;;;5003731;28;20053;-53
2021/09/03 08:50:18;;;;;;;18.30;7.35;;;;;;;;;;4983998;28;20066;-53
2021/09/03 08:52:45;;;;;;;19.90;7.55;;;;;;;;;;4986298;28;20038;-55
2021/09/03 08:55:12;;;;;;;18.77;7.53;;;;;;;;;;4977942;28;20043;-54
2021/09/03 08:57:39;;;;;;;16.23;6.63;;;;;;;;;;4966708;28;20042;-55
2021/09/03 09:00:16;;;;;;;18.05;7.40;;;;;;;;;;4957577;28;20039;-53
2021/09/03 09:03:00;;;;;;;16.88;7.28;;;;;;;;;;4991664;28;20060;-56
2021/09/03 09:05:47;;;;;;;17.17;6.63;;;;;;;;;;4986311;28;20046;-55
2021/09/03 09:08:14;;;;;;;22.98;7.50;;;;;;;;;;4944308;28;20046;-54
2021/09/03 09:10:48;;;;;;;15.13;7.28;;;;;;;;;;4957788;28;20050;-59
2021/09/03 09:13:15;;;;;;;14.82;6.47;;;;;;;;;;4948276;28;20035;-57
2021/09/03 09:15:42;;;;;;;18.73;6.40;;;;;;;;;;4946290;28;20058;-58
2021/09/03 09:18:10;;;;;;;16.65;6.63;;;;;;;;;;4945863;28;20043;-56
2021/09/03 09:20:36;;;;;;;17.77;6.38;;;;;;;;;;4965071;28;20047;-55
2021/09/03 09:23:04;;;;;;;13.45;5.93;;;;;;;;;;4943890;28;20126;-59
2021/09/03 09:25:31;;;;;;;18.33;6.90;;;;;;;;;;4948125;28;20039;-57
2021/09/03 09:28:13;;;;;;;14.43;5.63;;;;;;;;;;4971286;28;20099;-57
2021/09/03 09:30:41;;;;;;;18.33;5.82;;;;;;;;;;4967824;28;20124;-59
2021/09/03 09:33:13;;;;;;;14.90;6.40;;;;;;;;;;4980988;28;20052;-56
2021/09/03 09:35:42;;;;;;;15.45;6.50;;;;;;;;;;4967512;28;20050;-58
2021/09/03 09:38:13;;;;;;;16.75;5.82;;;;;;;;;;4964154;28;20050;-58
2021/09/03 09:40:43;;;;;;;15.93;6.18;;;;;;;;;;4967850;28;20124;-57
2021/09/03 09:43:22;;;;;;;20.02;6.15;;;;;;;;;;4962583;28;20074;-58
2021/09/03 09:46:09;;;;;;;12.52;5.55;;;;;;;;;;4966529;28;20043;-55
2021/09/03 09:48:53;;;;;;;14.73;5.78;;;;;;;;;;4954420;28;20046;-58
2021/09/03 09:51:20;;;;;;;13.13;5.55;;;;;;;;;;4948213;28;20039;-55
2021/09/03 09:53:54;;;;;;;21.95;5.88;;;;;;;;;;4943740;28;20043;-57
2021/09/03 09:56:20;;;;;;;19.85;6.25;;;;;;;;;;4963656;28;20051;-58
2021/09/03 09:58:49;;;;;;;12.45;5.30;;;;;;;;;;4948377;28;20038;-57
2021/09/03 10:01:16;;;;;;;13.10;5.72;;;;;;;;;;4966603;28;20047;-58
2021/09/03 10:03:43;;;;;;;16.55;6.20;;;;;;;;;;4965375;28;20092;-54
2021/09/03 10:06:10;;;;;;;15.13;5.50;;;;;;;;;;4985994;28;20082;-57
2021/09/03 10:08:37;;;;;;;13.68;5.80;;;;;;;;;;4997383;28;20042;-56
2021/09/03 10:11:05;;;;;;;12.65;5.85;;;;;;;;;;4976433;28;20112;-58
2021/09/03 10:13:31;;;;;;;14.50;5.60;;;;;;;;;;4962110;28;20049;-57
2021/09/03 10:15:58;;;;;;;12.25;5.95;;;;;;;;;;5009670;28;20049;-58
2021/09/03 10:18:25;;;;;;;17.65;6.70;;;;;;;;;;5004362;28;20038;-58
2021/09/03 10:20:51;;;;;;;13.80;6.18;;;;;;;;;;4983860;28;20049;-58
2021/09/03 10:23:33;;;;;;;12.68;6.20;;;;;;;;;;4985190;28;20042;-58
2021/09/03 10:25:59;;;;;;;13.50;5.22;;;;;;;;;;4996260;28;20052;-57
2021/09/03 10:28:27;;;;;;;14.20;5.35;;;;;;;;;;5005499;28;20358;-58
2021/09/03 10:31:03;;;;;;;15.07;6.35;;;;;;;;;;4973449;28;20050;-58
2021/09/03 10:33:34;;;;;;;12.68;5.78;;;;;;;;;;4983685;28;20070;-58
2021/09/03 10:36:00;;;;;;;12.70;5.22;;;;;;;;;;4981825;28;20046;-59
2021/09/03 10:38:27;;;;;;;15.82;5.13;;;;;;;;;;4982063;28;20039;-59
2021/09/03 10:40:55;;;;;;;18.80;5.93;;;;;;;;;;4981538;28;20125;-60
2021/09/03 10:43:39;;;;;;;16.70;6.32;;;;;;;;;;4986134;28;20092;-59
2021/09/03 10:46:07;;;;;;;13.32;5.22;;;;;;;;;;5008604;28;20050;-58
2021/09/03 10:48:36;;;;;;;17.05;7.03;;;;;;;;;;4979799;28;20129;-59
2021/09/03 10:51:02;;;;;;;13.85;5.15;;;;;;;;;;4974877;28;20041;-58
2021/09/03 10:53:30;;;;;;;11.63;5.30;;;;;;;;;;4988801;28;20042;-59
2021/09/03 10:56:17;;;;;;;16.55;5.40;;;;;;;;;;4971542;28;20041;-58
2021/09/03 10:58:44;;;;;;;14.73;5.35;;;;;;;;;;4974346;28;20093;-59
2021/09/03 11:01:32;;;;;;;12.00;5.10;;;;;;;;;;4974959;28;20033;-58
2021/09/03 11:03:59;;;;;;;13.02;5.38;;;;;;;;;;5004311;28;20138;-58
2021/09/03 11:06:29;;;;;;;15.88;6.18;;;;;;;;;;4987341;28;20046;-58
2021/09/03 11:08:57;;;;;;;19.83;6.28;;;;;;;;;;4966672;28;20066;-58
2021/09/03 11:11:23;;;;;;;12.60;5.28;;;;;;;;;;4980695;28;20059;-59
2021/09/03 11:13:50;;;;;;;12.95;5.25;;;;;;;;;;4983842;28;20053;-58
2021/09/03 11:16:31;;;;;;;12.63;5.75;;;;;;;;;;4977861;28;20149;-59
2021/09/03 11:19:05;;;;;;;14.13;5.45;;;;;;;;;;4971209;28;20120;-58
2021/09/03 11:21:32;;;;;;;13.27;5.32;;;;;;;;;;4977937;28;20054;-59
2021/09/03 11:23:59;;;;;;;16.17;6.07;;;;;;;;;;4975114;28;20103;-59
2021/09/03 11:26:26;;;;;;;12.98;5.75;;;;;;;;;;5001183;28;20074;-59
2021/09/03 11:28:53;;;;;;;14.60;6.07;;;;;;;;;;4966227;28;20051;-57
2021/09/03 11:31:19;;;;;;;17.00;5.72;;;;;;;;;;4985132;28;20042;-60
2021/09/03 11:33:49;;;;;;;14.23;5.20;;;;;;;;;;4997902;28;20131;-58
2021/09/03 11:36:15;;;;;;;11.32;5.68;;;;;;;;;;4992274;28;20150;-58
2021/09/03 11:38:42;;;;;;;19.88;6.07;;;;;;;;;;4977732;28;20103;-59
2021/09/03 11:41:09;;;;;;;15.43;7.03;;;;;;;;;;4984196;28;20038;-58
2021/09/03 11:43:35;;;;;;;13.98;5.88;;;;;;;;;;4986476;28;20046;-59
2021/09/03 11:46:02;;;;;;;13.80;6.43;;;;;;;;;;4983764;28;20047;-59
2021/09/03 11:48:28;;;;;;;13.82;5.38;;;;;;;;;;4972328;28;20074;-60
2021/09/03 11:50:58;;;;;;;13.52;5.10;;;;;;;;;;4982953;28;20101;-60
2021/09/03 11:53:26;;;;;;;14.65;5.95;;;;;;;;;;4961492;28;20042;-59
2021/09/03 11:55:53;;;;;;;13.60;5.97;;;;;;;;;;4995088;28;20131;-58
2021/09/03 11:58:23;;;;;;;10.68;4.93;;;;;;;;;;5007245;28;20049;-59
2021/09/03 12:00:51;;;;;;;18.80;4.95;;;;;;;;;;4986314;28;20051;-59
2021/09/03 12:03:19;;;;;;;12.00;4.95;;;;;;;;;;4998230;28;20050;-60
2021/09/03 12:05:46;;;;;;;11.57;5.00;;;;;;;;;;4969495;28;20132;-57
2021/09/03 12:08:15;;;;;;;13.93;5.70;;;;;;;;;;4960665;28;20038;-59
2021/09/03 12:10:43;;;;;;;13.38;5.68;;;;;;;;;;4945265;28;20105;-60
2021/09/03 12:13:11;;;;;;;12.25;5.32;;;;;;;;;;4945784;28;20075;-58
2021/09/03 12:15:38;;;;;;;10.98;4.82;;;;;;;;;;4961135;28;20128;-58
2021/09/03 12:18:08;;;;;;;13.77;5.43;;;;;;;;;;4944482;28;20039;-59
2021/09/03 12:20:35;;;;;;;12.15;5.45;;;;;;;;;;4977894;28;20054;-59
2021/09/03 12:23:01;;;;;;;17.77;5.78;;;;;;;;;;4964546;28;20031;-58
2021/09/03 12:25:34;;;;;;;14.60;4.97;;;;;;;;;;4961984;28;20133;-59
2021/09/03 12:28:11;;;;;;;10.73;4.25;;;;;;;;;;4965406;28;20038;-59
2021/09/03 12:30:37;;;;;;;10.00;4.18;;;;;;;;;;4947277;28;20068;-59
2021/09/03 12:33:20;;;;;;;11.13;4.85;;;;;;;;;;4945783;28;20047;-59
2021/09/03 12:35:47;;;;;;;12.38;4.90;;;;;;;;;;4958599;28;20043;-60
2021/09/03 12:38:14;;;;;;;13.70;4.78;;;;;;;;;;4946211;28;20051;-60
2021/09/03 12:40:42;;;;;;;10.60;4.35;;;;;;;;;;4951616;28;20129;-60
2021/09/03 12:43:12;;;;;;;11.27;4.60;;;;;;;;;;4975818;28;20038;-60
2021/09/03 12:45:42;;;;;;;11.50;5.65;;;;;;;;;;4969222;28;20039;-59
2021/09/03 12:48:10;;;;;;;11.93;5.55;;;;;;;;;;4946584;28;20050;-60
2021/09/03 12:50:36;;;;;;;12.20;5.03;;;;;;;;;;4948346;28;20085;-59
2021/09/03 12:53:04;;;;;;;12.98;4.72;;;;;;;;;;4963783;28;20055;-60
2021/09/03 12:55:30;;;;;;;14.73;5.53;;;;;;;;;;4953742;28;20136;-59
2021/09/03 12:58:07;;;;;;;8.75;4.75;;;;;;;;;;4964997;28;20043;-59
2021/09/03 13:00:35;;;;;;;13.27;4.20;;;;;;;;;;4957680;28;20071;-59
2021/09/03 13:03:02;;;;;;;13.98;4.55;;;;;;;;;;4962750;28;20046;-58
2021/09/03 13:05:28;;;;;;;12.02;4.82;;;;;;;;;;4969968;28;20047;-59
2021/09/03 13:07:55;;;;;;;15.55;4.75;;;;;;;;;;4996773;28;20050;-59
2021/09/03 13:10:22;;;;;;;16.17;5.30;;;;;;;;;;4982733;28;20042;-61
2021/09/03 13:12:48;;;;;;;10.85;4.53;;;;;;;;;;4962096;28;20100;-60
2021/09/03 13:15:16;;;;;;;10.95;4.65;;;;;;;;;;4963077;28;20062;-60
2021/09/03 13:17:44;;;;;;;10.95;4.72;;;;;;;;;;4963019;28;20034;-61
2021/09/03 13:20:11;;;;;;;11.65;5.75;;;;;;;;;;4966539;28;20042;-58
2021/09/03 13:22:37;;;;;;;11.27;5.07;;;;;;;;;;4980919;28;20059;-59
2021/09/03 13:25:04;;;;;;;12.80;4.97;;;;;;;;;;4967154;28;20042;-59
2021/09/03 13:27:31;;;;;;;10.30;4.72;;;;;;;;;;4963049;28;20101;-60
2021/09/03 13:29:57;;;;;;;8.73;4.47;;;;;;;;;;4958212;28;20041;-59
2021/09/03 13:32:25;;;;;;;10.88;4.75;;;;;;;;;;4962851;28;20051;-58
2021/09/03 13:34:53;;;;;;;10.65;4.38;;;;;;;;;;4966046;28;20047;-60
2021/09/03 13:37:20;;;;;;;;;;;;;;;;;;4964145;28;20050;-60
2021/09/03 13:39:46;;;;;;;12.80;4.53;;;;;;;;;;4965951;28;19936;-60
2021/09/03 13:42:14;;;;;;;14.27;5.32;;;;;;;;;;4964237;28;20050;-59
2021/09/03 13:44:41;;;;;;;12.95;4.15;;;;;;;;;;4983168;28;20038;-60
2021/09/03 13:47:08;;;;;;;13.23;4.65;;;;;;;;;;4976496;28;20047;-59
2021/09/03 13:49:36;;;;;;;11.05;4.90;;;;;;;;;;4985812;28;20050;-60
2021/09/03 13:52:05;;;;;;;12.15;4.82;;;;;;;;;;4966669;28;20050;-60
2021/09/03 13:54:32;;;;;;;11.90;4.38;;;;;;;;;;4966296;28;20027;-59
2021/09/03 13:57:04;;;;;;;13.82;4.90;;;;;;;;;;4951571;28;20043;-60
2021/09/03 13:59:31;;;;;;;11.07;4.50;;;;;;;;;;4965194;28;20038;-59
2021/09/03 14:01:57;;;;;;;10.77;4.70;;;;;;;;;;4970211;28;20041;-58
2021/09/03 14:04:24;;;;;;;19.02;5.22;;;;;;;;;;4967988;28;20050;-60
2021/09/03 14:06:53;;;;;;;10.43;4.50;;;;;;;;;;4987899;28;20120;-59
2021/09/03 14:09:19;;;;;;;8.82;4.50;;;;;;;;;;5001146;28;20071;-60
2021/09/03 14:11:46;;;;;;;13.48;5.07;;;;;;;;;;5001581;28;20053;-60
2021/09/03 14:14:13;;;;;;;10.90;4.25;;;;;;;;;;4989053;28;20045;-58
2021/09/03 14:16:42;;;;;;;9.60;4.63;;;;;;;;;;4988477;28;20050;-58
2021/09/03 14:19:09;;;;;;;10.20;4.50;;;;;;;;;;4996224;28;20053;-60
2021/09/03 14:21:35;;;;;;;11.05;4.72;;;;;;;;;;4997794;28;20040;-60
2021/09/03 14:24:03;;;;;;;15.82;5.20;;;;;;;;;;4997209;28;20042;-60
2021/09/03 14:26:33;;;;;;;11.88;4.45;;;;;;;;;;4989409;28;20053;-58
2021/09/03 14:29:00;;;;;;;14.32;4.30;;;;;;;;;;4984971;28;20096;-60
2021/09/03 14:31:29;;;;;;;11.77;4.50;;;;;;;;;;4989415;28;20058;-61